Terminal Aerodrome Forecast
Issued by NWS King Salmon, AK

Home | Current Version | Previous Version | Text Only | Print | Product List | Glossary On
Versions: 1 2 3 4 5 6 7 8 9 10 11 12 13 14 15 16 17 18 19
000
FTAK31 PANC 270527
TAFAKN
TAF
PAKN 270527Z 2706/2806 24010G18KT 4SM -SN BR OVC006
     FM271400 27008KT P6SM VCSH SCT003 OVC012
     FM271900 29011KT P6SM SCT012 OVC040
     FM272200 30014G25KT P6SM SCT040=

USA.gov is the U.S. government's official web portal to all federal, state and local government web resources and services.